Date,TemperatureHighF,TemperatureAvgF,TemperatureLowF,DewpointHighF,DewpointAvgF,DewpointLowF,HumidityHigh,HumidityAvg,HumidityLow,PressureMaxIn,PressureMinIn,WindSpeedMaxMPH,WindSpeedAvgMPH,GustSpeedMaxMPH,PrecipitationSumIn
2013-11-1,64,41,27,47,36,26,96,85,46,30.33,30.00,6,0,6,0.00
2013-11-2,53,45,32,44,37,30,96,76,49,30.10,29.82,20,2,22,0.01
2013-11-3,46,39,27,34,31,25,95,74,46,30.16,30.06,11,1,11,0.00
2013-11-4,50,42,32,38,34,30,94,77,54,30.20,30.11,7,0,7,0.00
2013-11-5,56,48,41,44,41,35,96,76,62,30.27,30.14,10,2,10,0.02
2013-11-6,56,46,36,48,43,35,97,90,72,30.34,30.20,5,0,5,0.02
2013-11-7,53,46,42,51,40,30,97,80,51,30.20,29.96,17,2,17,0.12
2013-11-8,51,42,31,38,35,29,96,76,53,30.22,30.14,11,0,13,0.00
2013-11-9,45,36,24,38,32,22,95,88,71,30.17,30.12,4,0,4,0.00
2013-11-10,54,40,32,42,36,30,96,87,60,30.24,30.15,5,0,5,0.00
2013-11-11,45,41,33,43,39,31,96,93,84,30.35,30.24,4,0,5,0.01
2013-11-12,63,46,37,47,42,36,96,88,53,30.45,30.26,4,0,4,0.02
2013-11-13,59,39,27,46,34,25,97,86,47,30.49,30.30,4,0,4,0.01
2013-11-14,48,34,24,35,30,22,95,85,59,30.30,30.08,4,0,5,0.00
2013-11-15,45,34,19,35,27,17,95,75,57,30.08,29.60,20,2,20,0.00
2013-11-16,51,43,37,35,33,28,87,67,46,29.88,29.55,19,2,20,0.00
2013-11-17,54,42,29,34,32,27,94,69,43,30.06,29.88,16,2,17,0.42
2013-11-18,54,44,32,42,35,29,93,73,48,30.04,29.85,11,1,11,0.00
2013-11-19,56,48,40,47,41,36,96,77,65,29.94,29.81,16,2,17,0.00
2013-11-20,42,31,8,36,17,2,85,59,30,30.44,29.94,9,1,11,0.00
2013-11-21,38,16,2,11,6,0,91,67,30,30.64,30.44,6,0,6,0.00
2013-11-22,37,17,4,15,9,2,92,72,39,30.68,30.55,6,0,7,0.00
2013-11-23,38,18,5,18,11,3,92,76,42,30.57,30.31,4,0,5,0.00
2013-11-24,46,21,6,22,13,4,92,75,38,30.33,30.20,6,0,7,0.00
2013-11-25,46,23,9,26,16,7,93,77,39,30.40,30.31,5,0,5,0.00
2013-11-26,44,24,13,26,18,11,93,80,48,30.33,30.15,6,0,6,0.00
2013-11-27,42,25,15,27,20,13,93,83,55,30.17,30.05,6,0,6,0.00
2013-11-28,44,23,11,29,18,9,93,83,53,30.21,30.10,5,0,5,0.00
2013-11-29,49,30,12,31,23,10,93,75,48,30.27,30.20,4,0,4,0.00
2013-11-30,61,43,35,39,35,30,92,75,39,30.33,30.20,7,0,7,0.00